sensor_id;sensor_type;location;lat;lon;timestamp;temperature;humidity
28959;DHT22;16066;0.000;0.000;2023-08-06T05:30:18;21.00;60.50
28959;DHT22;16066;0.000;0.000;2023-08-06T05:32:43;21.00;60.70
28959;DHT22;16066;0.000;0.000;2023-08-06T05:35:09;21.00;60.70
28959;DHT22;16066;0.000;0.000;2023-08-06T05:37:34;21.00;60.70
28959;DHT22;16066;0.000;0.000;2023-08-06T05:40:01;21.00;60.60
28959;DHT22;16066;0.000;0.000;2023-08-06T05:42:27;21.00;61.50
28959;DHT22;16066;0.000;0.000;2023-08-06T05:44:52;21.00;60.90
28959;DHT22;16066;0.000;0.000;2023-08-06T05:47:18;21.00;60.90
28959;DHT22;16066;0.000;0.000;2023-08-06T05:49:45;21.00;60.70
28959;DHT22;16066;0.000;0.000;2023-08-06T05:52:11;21.00;60.60
28959;DHT22;16066;0.000;0.000;2023-08-06T05:54:36;21.00;60.70
28959;DHT22;16066;0.000;0.000;2023-08-06T05:57:02;21.00;60.70
28959;DHT22;16066;0.000;0.000;2023-08-06T05:59:27;21.00;60.90
28959;DHT22;16066;0.000;0.000;2023-08-06T06:01:53;21.00;61.50
28959;DHT22;16066;0.000;0.000;2023-08-06T06:04:19;21.00;60.70
28959;DHT22;16066;0.000;0.000;2023-08-06T06:06:44;21.00;60.90
28959;DHT22;16066;0.000;0.000;2023-08-06T06:09:10;21.00;60.60
28959;DHT22;16066;0.000;0.000;2023-08-06T06:11:35;21.10;60.40
28959;DHT22;16066;0.000;0.000;2023-08-06T06:14:01;21.10;60.70
28959;DHT22;16066;0.000;0.000;2023-08-06T06:16:26;21.00;60.70
28959;DHT22;16066;0.000;0.000;2023-08-06T06:18:52;21.00;60.60
28959;DHT22;16066;0.000;0.000;2023-08-06T06:21:20;21.00;60.40
28959;DHT22;16066;0.000;0.000;2023-08-06T06:23:45;21.00;60.40
28959;DHT22;16066;0.000;0.000;2023-08-06T06:26:11;21.10;60.50
28959;DHT22;16066;0.000;0.000;2023-08-06T06:28:36;21.10;60.30
28959;DHT22;16066;0.000;0.000;2023-08-06T06:31:02;21.10;60.40
28959;DHT22;16066;0.000;0.000;2023-08-06T06:33:28;21.00;60.50
28959;DHT22;16066;0.000;0.000;2023-08-06T06:35:53;21.10;60.70
28959;DHT22;16066;0.000;0.000;2023-08-06T06:38:19;21.10;60.70
28959;DHT22;16066;0.000;0.000;2023-08-06T06:40:53;21.10;60.70
28959;DHT22;16066;0.000;0.000;2023-08-06T06:43:19;21.10;60.90
28959;DHT22;16066;0.000;0.000;2023-08-06T06:45:44;21.10;60.90
28959;DHT22;16066;0.000;0.000;2023-08-06T06:48:10;21.10;60.80
28959;DHT22;16066;0.000;0.000;2023-08-06T06:50:36;21.10;60.70
28959;DHT22;16066;0.000;0.000;2023-08-06T06:53:01;21.10;60.90
28959;DHT22;16066;0.000;0.000;2023-08-06T06:55:27;21.10;60.60
28959;DHT22;16066;0.000;0.000;2023-08-06T06:57:53;21.10;60.60
28959;DHT22;16066;0.000;0.000;2023-08-06T07:00:18;21.10;60.50
28959;DHT22;16066;0.000;0.000;2023-08-06T07:02:44;21.10;60.70
28959;DHT22;16066;0.000;0.000;2023-08-06T07:05:09;21.10;60.50
28959;DHT22;16066;0.000;0.000;2023-08-06T07:07:35;21.10;60.30
28959;DHT22;16066;0.000;0.000;2023-08-06T07:10:02;21.10;60.30
28959;DHT22;16066;0.000;0.000;2023-08-06T07:12:27;21.10;60.40
28959;DHT22;16066;0.000;0.000;2023-08-06T07:14:53;21.20;60.70
28959;DHT22;16066;0.000;0.000;2023-08-06T07:17:18;21.20;60.60
28959;DHT22;16066;0.000;0.000;2023-08-06T07:19:44;21.20;60.40
28959;DHT22;16066;0.000;0.000;2023-08-06T07:22:09;21.20;60.50
28959;DHT22;16066;0.000;0.000;2023-08-06T07:24:35;21.20;60.50
28959;DHT22;16066;0.000;0.000;2023-08-06T07:27:00;21.20;60.30
28959;DHT22;16066;0.000;0.000;2023-08-06T07:29:26;21.20;60.30
28959;DHT22;16066;0.000;0.000;2023-08-06T07:31:52;21.20;60.40
28959;DHT22;16066;0.000;0.000;2023-08-06T07:34:17;21.20;60.10
28959;DHT22;16066;0.000;0.000;2023-08-06T07:36:44;21.20;60.00
28959;DHT22;16066;0.000;0.000;2023-08-06T07:39:11;21.20;60.00
28959;DHT22;16066;0.000;0.000;2023-08-06T07:41:36;21.20;60.00
28959;DHT22;16066;0.000;0.000;2023-08-06T07:44:02;21.30;60.20
28959;DHT22;16066;0.000;0.000;2023-08-06T07:46:27;21.30;60.50
28959;DHT22;16066;0.000;0.000;2023-08-06T07:48:53;21.30;60.10
28959;DHT22;16066;0.000;0.000;2023-08-06T07:51:18;21.30;60.00
28959;DHT22;16066;0.000;0.000;2023-08-06T07:53:45;21.30;60.10
28959;DHT22;16066;0.000;0.000;2023-08-06T07:56:10;21.30;60.10
28959;DHT22;16066;0.000;0.000;2023-08-06T07:58:36;21.30;60.00
28959;DHT22;16066;0.000;0.000;2023-08-06T08:01:02;21.30;60.50
28959;DHT22;16066;0.000;0.000;2023-08-06T08:03:27;21.30;60.80
28959;DHT22;16066;0.000;0.000;2023-08-06T08:05:55;21.30;60.60
28959;DHT22;16066;0.000;0.000;2023-08-06T08:08:24;21.30;60.20
28959;DHT22;16066;0.000;0.000;2023-08-06T08:10:49;21.30;60.20
28959;DHT22;16066;0.000;0.000;2023-08-06T08:13:15;21.30;60.50
28959;DHT22;16066;0.000;0.000;2023-08-06T08:15:40;21.30;60.30
28959;DHT22;16066;0.000;0.000;2023-08-06T08:18:06;21.30;60.90
28959;DHT22;16066;0.000;0.000;2023-08-06T08:20:31;21.30;60.90
28959;DHT22;16066;0.000;0.000;2023-08-06T08:23:01;21.30;60.70
28959;DHT22;16066;0.000;0.000;2023-08-06T08:25:27;21.40;61.00
28959;DHT22;16066;0.000;0.000;2023-08-06T08:27:56;21.40;60.50
28959;DHT22;16066;0.000;0.000;2023-08-06T08:30:21;21.40;60.80
28959;DHT22;16066;0.000;0.000;2023-08-06T08:32:48;21.40;60.50
28959;DHT22;16066;0.000;0.000;2023-08-06T08:35:14;21.40;60.60
28959;DHT22;16066;0.000;0.000;2023-08-06T08:37:41;21.40;60.30
28959;DHT22;16066;0.000;0.000;2023-08-06T08:40:08;21.50;60.40
28959;DHT22;16066;0.000;0.000;2023-08-06T08:42:33;21.50;60.60
28959;DHT22;16066;0.000;0.000;2023-08-06T08:44:59;21.50;60.80
28959;DHT22;16066;0.000;0.000;2023-08-06T08:47:25;21.50;60.80
28959;DHT22;16066;0.000;0.000;2023-08-06T08:49:54;21.60;60.40
28959;DHT22;16066;0.000;0.000;2023-08-06T08:52:21;21.60;60.50
28959;DHT22;16066;0.000;0.000;2023-08-06T08:54:48;21.60;60.70
28959;DHT22;16066;0.000;0.000;2023-08-06T08:57:18;21.60;61.10
28959;DHT22;16066;0.000;0.000;2023-08-06T08:59:44;21.70;61.30
28959;DHT22;16066;0.000;0.000;2023-08-06T09:02:11;21.70;61.30
28959;DHT22;16066;0.000;0.000;2023-08-06T09:04:39;21.70;61.40
28959;DHT22;16066;0.000;0.000;2023-08-06T09:07:05;21.80;61.40
28959;DHT22;16066;0.000;0.000;2023-08-06T09:09:34;21.80;61.30
28959;DHT22;16066;0.000;0.000;2023-08-06T09:12:16;21.80;61.30
28959;DHT22;16066;0.000;0.000;2023-08-06T09:14:42;21.80;61.00
28959;DHT22;16066;0.000;0.000;2023-08-06T09:17:09;21.80;61.10
28959;DHT22;16066;0.000;0.000;2023-08-06T09:19:36;21.80;60.80
28959;DHT22;16066;0.000;0.000;2023-08-06T09:22:02;21.80;60.60
28959;DHT22;16066;0.000;0.000;2023-08-06T09:24:28;21.90;60.80
28959;DHT22;16066;0.000;0.000;2023-08-06T09:26:53;21.90;60.70
28959;DHT22;16066;0.000;0.000;2023-08-06T09:29:19;21.90;60.80
28959;DHT22;16066;0.000;0.000;2023-08-06T09:31:50;21.90;60.90
28959;DHT22;16066;0.000;0.000;2023-08-06T09:34:22;21.90;60.70
28959;DHT22;16066;0.000;0.000;2023-08-06T09:36:50;21.90;60.10
28959;DHT22;16066;0.000;0.000;2023-08-06T09:39:26;21.90;59.70
28959;DHT22;16066;0.000;0.000;2023-08-06T09:41:56;21.90;59.90
28959;DHT22;16066;0.000;0.000;2023-08-06T09:44:24;21.90;60.10
28959;DHT22;16066;0.000;0.000;2023-08-06T09:46:58;21.90;60.20
28959;DHT22;16066;0.000;0.000;2023-08-06T09:49:28;21.90;60.10
28959;DHT22;16066;0.000;0.000;2023-08-06T09:52:05;22.00;60.10
28959;DHT22;16066;0.000;0.000;2023-08-06T09:54:32;22.00;60.10
28959;DHT22;16066;0.000;0.000;2023-08-06T09:57:00;22.00;60.00
28959;DHT22;16066;0.000;0.000;2023-08-06T09:59:26;22.00;60.50
28959;DHT22;16066;0.000;0.000;2023-08-06T10:01:54;22.00;60.20
28959;DHT22;16066;0.000;0.000;2023-08-06T10:04:20;22.00;60.20
28959;DHT22;16066;0.000;0.000;2023-08-06T10:06:47;22.00;60.20
28959;DHT22;16066;0.000;0.000;2023-08-06T10:09:16;22.10;60.30
28959;DHT22;16066;0.000;0.000;2023-08-06T10:11:42;22.10;61.20
28959;DHT22;16066;0.000;0.000;2023-08-06T10:14:33;22.10;60.30
28959;DHT22;16066;0.000;0.000;2023-08-06T10:17:00;22.20;60.40
28959;DHT22;16066;0.000;0.000;2023-08-06T10:19:27;22.20;60.20
28959;DHT22;16066;0.000;0.000;2023-08-06T10:24:53;22.30;60.30
28959;DHT22;16066;0.000;0.000;2023-08-06T10:27:39;22.30;60.40
28959;DHT22;16066;0.000;0.000;2023-08-06T10:30:28;22.30;60.50
28959;DHT22;16066;0.000;0.000;2023-08-06T10:33:01;22.30;60.20
28959;DHT22;16066;0.000;0.000;2023-08-06T10:35:37;22.30;60.40
28959;DHT22;16066;0.000;0.000;2023-08-06T10:38:07;22.30;61.20
28959;DHT22;16066;0.000;0.000;2023-08-06T10:40:33;22.30;60.10
28959;DHT22;16066;0.000;0.000;2023-08-06T10:43:03;22.30;60.30
28959;DHT22;16066;0.000;0.000;2023-08-06T10:45:29;22.30;60.70
28959;DHT22;16066;0.000;0.000;2023-08-06T10:47:56;22.30;60.60
28959;DHT22;16066;0.000;0.000;2023-08-06T10:50:25;22.40;60.70
28959;DHT22;16066;0.000;0.000;2023-08-06T10:52:51;22.40;60.60
28959;DHT22;16066;0.000;0.000;2023-08-06T10:55:28;22.30;60.60
28959;DHT22;16066;0.000;0.000;2023-08-06T10:57:55;22.40;60.70
28959;DHT22;16066;0.000;0.000;2023-08-06T11:00:22;22.40;60.50
28959;DHT22;16066;0.000;0.000;2023-08-06T11:02:49;22.40;60.70
28959;DHT22;16066;0.000;0.000;2023-08-06T11:05:15;22.40;60.60
28959;DHT22;16066;0.000;0.000;2023-08-06T11:07:41;22.40;60.60
28959;DHT22;16066;0.000;0.000;2023-08-06T11:10:09;22.40;60.50
28959;DHT22;16066;0.000;0.000;2023-08-06T11:12:35;22.40;60.70
28959;DHT22;16066;0.000;0.000;2023-08-06T11:15:01;22.40;60.90
28959;DHT22;16066;0.000;0.000;2023-08-06T11:17:28;22.40;60.70
28959;DHT22;16066;0.000;0.000;2023-08-06T11:19:53;22.40;60.80
28959;DHT22;16066;0.000;0.000;2023-08-06T11:22:21;22.40;60.80
28959;DHT22;16066;0.000;0.000;2023-08-06T11:24:47;22.40;61.10
28959;DHT22;16066;0.000;0.000;2023-08-06T11:27:14;22.40;61.50
28959;DHT22;16066;0.000;0.000;2023-08-06T11:29:40;22.40;61.50
28959;DHT22;16066;0.000;0.000;2023-08-06T11:32:10;22.30;61.20
28959;DHT22;16066;0.000;0.000;2023-08-06T11:34:37;22.40;61.10
28959;DHT22;16066;0.000;0.000;2023-08-06T11:37:03;22.30;61.20
28959;DHT22;16066;0.000;0.000;2023-08-06T11:39:33;22.30;61.20
28959;DHT22;16066;0.000;0.000;2023-08-06T11:41:58;22.30;61.40
28959;DHT22;16066;0.000;0.000;2023-08-06T11:44:30;22.30;61.30
28959;DHT22;16066;0.000;0.000;2023-08-06T11:46:57;22.30;61.40
28959;DHT22;16066;0.000;0.000;2023-08-06T11:49:38;22.30;61.90
28959;DHT22;16066;0.000;0.000;2023-08-06T11:52:22;22.30;61.60
28959;DHT22;16066;0.000;0.000;2023-08-06T11:55:07;22.30;61.70
28959;DHT22;16066;0.000;0.000;2023-08-06T11:57:34;22.30;61.70
28959;DHT22;16066;0.000;0.000;2023-08-06T12:00:04;22.30;61.60
28959;DHT22;16066;0.000;0.000;2023-08-06T12:02:32;22.30;62.30
28959;DHT22;16066;0.000;0.000;2023-08-06T12:05:04;22.40;62.20
28959;DHT22;16066;0.000;0.000;2023-08-06T12:07:37;22.30;61.20
28959;DHT22;16066;0.000;0.000;2023-08-06T12:10:03;22.30;61.20
28959;DHT22;16066;0.000;0.000;2023-08-06T12:12:28;22.30;61.80
28959;DHT22;16066;0.000;0.000;2023-08-06T12:14:54;22.40;61.50
28959;DHT22;16066;0.000;0.000;2023-08-06T12:17:21;22.40;61.30
28959;DHT22;16066;0.000;0.000;2023-08-06T12:19:46;22.40;61.10
28959;DHT22;16066;0.000;0.000;2023-08-06T12:22:13;22.40;61.50
28959;DHT22;16066;0.000;0.000;2023-08-06T12:24:40;22.40;61.50
28959;DHT22;16066;0.000;0.000;2023-08-06T12:27:06;22.40;61.00
28959;DHT22;16066;0.000;0.000;2023-08-06T12:29:31;22.40;61.00
28959;DHT22;16066;0.000;0.000;2023-08-06T12:31:57;22.40;60.70
28959;DHT22;16066;0.000;0.000;2023-08-06T12:34:22;22.40;60.80
28959;DHT22;16066;0.000;0.000;2023-08-06T12:36:48;22.40;60.70
28959;DHT22;16066;0.000;0.000;2023-08-06T12:39:14;22.40;60.40
28959;DHT22;16066;0.000;0.000;2023-08-06T12:41:39;22.40;60.10
28959;DHT22;16066;0.000;0.000;2023-08-06T12:44:05;22.40;60.30
28959;DHT22;16066;0.000;0.000;2023-08-06T12:46:31;22.40;60.00
28959;DHT22;16066;0.000;0.000;2023-08-06T12:48:56;22.40;59.70
28959;DHT22;16066;0.000;0.000;2023-08-06T12:51:23;22.30;59.50
28959;DHT22;16066;0.000;0.000;2023-08-06T12:53:49;22.30;59.50
28959;DHT22;16066;0.000;0.000;2023-08-06T12:56:14;22.30;60.40
28959;DHT22;16066;0.000;0.000;2023-08-06T12:58:40;22.30;59.80
28959;DHT22;16066;0.000;0.000;2023-08-06T13:01:07;22.30;60.00
28959;DHT22;16066;0.000;0.000;2023-08-06T13:03:32;22.30;59.80
28959;DHT22;16066;0.000;0.000;2023-08-06T13:05:58;22.20;59.70
28959;DHT22;16066;0.000;0.000;2023-08-06T13:08:23;22.20;59.80
28959;DHT22;16066;0.000;0.000;2023-08-06T13:10:49;22.20;60.00
28959;DHT22;16066;0.000;0.000;2023-08-06T13:13:14;22.20;60.00
28959;DHT22;16066;0.000;0.000;2023-08-06T13:15:40;22.20;60.00
28959;DHT22;16066;0.000;0.000;2023-08-06T13:18:06;22.20;60.10
28959;DHT22;16066;0.000;0.000;2023-08-06T13:20:31;22.20;59.80
28959;DHT22;16066;0.000;0.000;2023-08-06T13:22:58;22.30;60.00
28959;DHT22;16066;0.000;0.000;2023-08-06T13:25:26;22.30;59.70
28959;DHT22;16066;0.000;0.000;2023-08-06T13:27:52;22.20;59.80
28959;DHT22;16066;0.000;0.000;2023-08-06T13:30:18;22.20;59.70
28959;DHT22;16066;0.000;0.000;2023-08-06T13:32:44;22.30;59.90
28959;DHT22;16066;0.000;0.000;2023-08-06T13:35:10;22.30;59.90
28959;DHT22;16066;0.000;0.000;2023-08-06T13:37:35;22.30;60.10
28959;DHT22;16066;0.000;0.000;2023-08-06T13:40:01;22.30;59.80
28959;DHT22;16066;0.000;0.000;2023-08-06T13:42:28;22.30;60.00
28959;DHT22;16066;0.000;0.000;2023-08-06T13:44:54;22.30;59.70
28959;DHT22;16066;0.000;0.000;2023-08-06T13:47:24;22.30;59.70
28959;DHT22;16066;0.000;0.000;2023-08-06T13:49:50;22.30;60.10
28959;DHT22;16066;0.000;0.000;2023-08-06T13:52:15;22.30;59.70
28959;DHT22;16066;0.000;0.000;2023-08-06T13:54:41;22.30;59.50
28959;DHT22;16066;0.000;0.000;2023-08-06T13:57:06;22.30;59.40
28959;DHT22;16066;0.000;0.000;2023-08-06T13:59:32;22.30;59.10
28959;DHT22;16066;0.000;0.000;2023-08-06T14:01:57;22.30;59.50
28959;DHT22;16066;0.000;0.000;2023-08-06T14:04:25;22.30;59.50
28959;DHT22;16066;0.000;0.000;2023-08-06T14:06:50;22.30;60.10
28959;DHT22;16066;0.000;0.000;2023-08-06T14:09:16;22.40;59.30
28959;DHT22;16066;0.000;0.000;2023-08-06T14:11:44;22.40;59.40
28959;DHT22;16066;0.000;0.000;2023-08-06T14:14:10;22.40;59.30
28959;DHT22;16066;0.000;0.000;2023-08-06T14:16:36;22.40;59.40
28959;DHT22;16066;0.000;0.000;2023-08-06T14:19:01;22.40;59.30
28959;DHT22;16066;0.000;0.000;2023-08-06T14:21:27;22.40;59.50
28959;DHT22;16066;0.000;0.000;2023-08-06T14:23:53;22.40;59.80
28959;DHT22;16066;0.000;0.000;2023-08-06T14:26:18;22.40;59.10
28959;DHT22;16066;0.000;0.000;2023-08-06T14:28:44;22.50;59.20
28959;DHT22;16066;0.000;0.000;2023-08-06T14:31:09;22.50;59.30
28959;DHT22;16066;0.000;0.000;2023-08-06T14:33:35;22.50;59.00
28959;DHT22;16066;0.000;0.000;2023-08-06T14:36:00;22.50;59.10
28959;DHT22;16066;0.000;0.000;2023-08-06T14:38:27;22.40;59.00
28959;DHT22;16066;0.000;0.000;2023-08-06T14:40:52;22.50;59.00
28959;DHT22;16066;0.000;0.000;2023-08-06T14:43:18;22.40;58.80
28959;DHT22;16066;0.000;0.000;2023-08-06T14:45:44;22.40;59.10
28959;DHT22;16066;0.000;0.000;2023-08-06T14:48:10;22.40;58.90
28959;DHT22;16066;0.000;0.000;2023-08-06T14:50:36;22.50;58.50
28959;DHT22;16066;0.000;0.000;2023-08-06T14:53:02;22.40;58.80
28959;DHT22;16066;0.000;0.000;2023-08-06T14:55:28;22.40;58.90
28959;DHT22;16066;0.000;0.000;2023-08-06T14:57:54;22.40;58.50
28959;DHT22;16066;0.000;0.000;2023-08-06T15:00:20;22.40;58.90
28959;DHT22;16066;0.000;0.000;2023-08-06T15:02:46;22.40;58.30
28959;DHT22;16066;0.000;0.000;2023-08-06T15:05:11;22.40;58.50
28959;DHT22;16066;0.000;0.000;2023-08-06T15:07:37;22.40;58.60
28959;DHT22;16066;0.000;0.000;2023-08-06T15:10:04;22.40;58.50
28959;DHT22;16066;0.000;0.000;2023-08-06T15:12:31;22.40;58.90
28959;DHT22;16066;0.000;0.000;2023-08-06T15:14:58;22.40;59.00
28959;DHT22;16066;0.000;0.000;2023-08-06T15:17:24;22.40;58.70
28959;DHT22;16066;0.000;0.000;2023-08-06T15:19:49;22.40;58.80
28959;DHT22;16066;0.000;0.000;2023-08-06T15:22:15;22.40;58.70
28959;DHT22;16066;0.000;0.000;2023-08-06T15:24:40;22.40;58.50
28959;DHT22;16066;0.000;0.000;2023-08-06T15:27:10;22.40;58.30
28959;DHT22;16066;0.000;0.000;2023-08-06T15:29:35;22.40;58.50
28959;DHT22;16066;0.000;0.000;2023-08-06T15:32:02;22.40;58.50
28959;DHT22;16066;0.000;0.000;2023-08-06T15:34:27;22.40;58.70
28959;DHT22;16066;0.000;0.000;2023-08-06T15:36:53;22.40;58.40
28959;DHT22;16066;0.000;0.000;2023-08-06T15:39:20;22.40;58.40
28959;DHT22;16066;0.000;0.000;2023-08-06T15:41:45;22.40;58.30
28959;DHT22;16066;0.000;0.000;2023-08-06T15:44:11;22.40;58.50
28959;DHT22;16066;0.000;0.000;2023-08-06T15:46:36;22.50;58.40
28959;DHT22;16066;0.000;0.000;2023-08-06T15:49:02;22.50;58.60
28959;DHT22;16066;0.000;0.000;2023-08-06T15:51:28;22.50;58.10
28959;DHT22;16066;0.000;0.000;2023-08-06T15:53:54;22.50;58.50
28959;DHT22;16066;0.000;0.000;2023-08-06T15:56:19;22.50;58.30
28959;DHT22;16066;0.000;0.000;2023-08-06T15:58:45;22.50;58.30
28959;DHT22;16066;0.000;0.000;2023-08-06T16:01:10;22.50;58.10
28959;DHT22;16066;0.000;0.000;2023-08-06T16:03:37;22.60;58.70
28959;DHT22;16066;0.000;0.000;2023-08-06T16:06:04;22.60;58.50
28959;DHT22;16066;0.000;0.000;2023-08-06T16:08:30;22.60;58.60
28959;DHT22;16066;0.000;0.000;2023-08-06T16:10:56;22.60;58.30
28959;DHT22;16066;0.000;0.000;2023-08-06T16:13:22;22.60;57.90
28959;DHT22;16066;0.000;0.000;2023-08-06T16:15:47;22.60;58.10
28959;DHT22;16066;0.000;0.000;2023-08-06T16:18:14;22.60;57.80
28959;DHT22;16066;0.000;0.000;2023-08-06T16:20:43;22.50;57.60
28959;DHT22;16066;0.000;0.000;2023-08-06T16:23:10;22.50;57.80
28959;DHT22;16066;0.000;0.000;2023-08-06T16:25:39;22.50;57.70
28959;DHT22;16066;0.000;0.000;2023-08-06T16:28:05;22.50;57.80
28959;DHT22;16066;0.000;0.000;2023-08-06T16:30:30;22.50;58.00
28959;DHT22;16066;0.000;0.000;2023-08-06T16:32:57;22.50;58.10
28959;DHT22;16066;0.000;0.000;2023-08-06T16:35:23;22.50;58.30
28959;DHT22;16066;0.000;0.000;2023-08-06T16:37:48;22.50;58.30
28959;DHT22;16066;0.000;0.000;2023-08-06T16:40:14;22.50;57.80
28959;DHT22;16066;0.000;0.000;2023-08-06T16:42:41;22.50;57.90
28959;DHT22;16066;0.000;0.000;2023-08-06T16:45:07;22.50;57.70
28959;DHT22;16066;0.000;0.000;2023-08-06T16:47:33;22.50;57.80
28959;DHT22;16066;0.000;0.000;2023-08-06T16:49:58;22.40;57.50
28959;DHT22;16066;0.000;0.000;2023-08-06T16:52:24;22.40;57.90
28959;DHT22;16066;0.000;0.000;2023-08-06T16:54:49;22.50;57.90
28959;DHT22;16066;0.000;0.000;2023-08-06T16:57:16;22.50;58.40
28959;DHT22;16066;0.000;0.000;2023-08-06T16:59:41;22.50;57.80
28959;DHT22;16066;0.000;0.000;2023-08-06T17:02:06;22.50;57.70
28959;DHT22;16066;0.000;0.000;2023-08-06T17:04:32;22.50;57.30
28959;DHT22;16066;0.000;0.000;2023-08-06T17:06:58;22.50;57.60
28959;DHT22;16066;0.000;0.000;2023-08-06T17:09:24;22.50;57.60
28959;DHT22;16066;0.000;0.000;2023-08-06T17:11:49;22.50;57.90
28959;DHT22;16066;0.000;0.000;2023-08-06T17:14:16;22.50;57.70
28959;DHT22;16066;0.000;0.000;2023-08-06T17:16:42;22.50;57.60
28959;DHT22;16066;0.000;0.000;2023-08-06T17:19:07;22.50;57.60
28959;DHT22;16066;0.000;0.000;2023-08-06T17:21:33;22.50;57.50
28959;DHT22;16066;0.000;0.000;2023-08-06T17:23:59;22.50;57.90
28959;DHT22;16066;0.000;0.000;2023-08-06T17:26:25;22.50;57.90
28959;DHT22;16066;0.000;0.000;2023-08-06T17:28:51;22.40;57.40
28959;DHT22;16066;0.000;0.000;2023-08-06T17:31:16;22.40;57.90
28959;DHT22;16066;0.000;0.000;2023-08-06T17:33:42;22.40;57.80
28959;DHT22;16066;0.000;0.000;2023-08-06T17:36:09;22.50;57.70
28959;DHT22;16066;0.000;0.000;2023-08-06T17:38:34;22.40;57.40
28959;DHT22;16066;0.000;0.000;2023-08-06T17:41:00;22.40;57.80
28959;DHT22;16066;0.000;0.000;2023-08-06T17:43:29;22.50;57.70
28959;DHT22;16066;0.000;0.000;2023-08-06T17:45:55;22.50;57.90
28959;DHT22;16066;0.000;0.000;2023-08-06T17:48:20;22.40;57.90
28959;DHT22;16066;0.000;0.000;2023-08-06T17:50:46;22.40;57.70
28959;DHT22;16066;0.000;0.000;2023-08-06T17:53:12;22.40;57.90
28959;DHT22;16066;0.000;0.000;2023-08-06T17:55:37;22.40;58.00
28959;DHT22;16066;0.000;0.000;2023-08-06T17:58:04;22.40;57.70
28959;DHT22;16066;0.000;0.000;2023-08-06T18:00:31;22.40;58.10
28959;DHT22;16066;0.000;0.000;2023-08-06T18:02:56;22.40;58.10
28959;DHT22;16066;0.000;0.000;2023-08-06T18:05:22;22.40;57.90
28959;DHT22;16066;0.000;0.000;2023-08-06T18:07:47;22.40;58.10
28959;DHT22;16066;0.000;0.000;2023-08-06T18:10:13;22.40;57.70
28959;DHT22;16066;0.000;0.000;2023-08-06T18:12:39;22.40;57.90
28959;DHT22;16066;0.000;0.000;2023-08-06T18:15:08;22.40;58.00
28959;DHT22;16066;0.000;0.000;2023-08-06T18:17:36;22.40;58.10
28959;DHT22;16066;0.000;0.000;2023-08-06T18:20:02;22.40;58.50
28959;DHT22;16066;0.000;0.000;2023-08-06T18:22:29;22.30;57.80
28959;DHT22;16066;0.000;0.000;2023-08-06T18:24:55;22.30;58.10
28959;DHT22;16066;0.000;0.000;2023-08-06T18:27:22;22.30;58.10
28959;DHT22;16066;0.000;0.000;2023-08-06T18:29:48;22.30;57.80
28959;DHT22;16066;0.000;0.000;2023-08-06T18:32:13;22.20;57.90
28959;DHT22;16066;0.000;0.000;2023-08-06T18:34:39;22.20;58.10
28959;DHT22;16066;0.000;0.000;2023-08-06T18:37:05;22.30;58.20
28959;DHT22;16066;0.000;0.000;2023-08-06T18:39:31;22.30;58.20
28959;DHT22;16066;0.000;0.000;2023-08-06T18:41:56;22.20;57.90
28959;DHT22;16066;0.000;0.000;2023-08-06T18:44:22;22.20;58.10
28959;DHT22;16066;0.000;0.000;2023-08-06T18:46:47;22.20;58.10
28959;DHT22;16066;0.000;0.000;2023-08-06T18:49:13;22.20;58.10
28959;DHT22;16066;0.000;0.000;2023-08-06T18:51:40;22.20;58.00
28959;DHT22;16066;0.000;0.000;2023-08-06T18:54:05;22.20;58.10
28959;DHT22;16066;0.000;0.000;2023-08-06T18:56:31;22.20;58.10
28959;DHT22;16066;0.000;0.000;2023-08-06T18:58:56;22.20;58.00
28959;DHT22;16066;0.000;0.000;2023-08-06T19:01:22;22.20;57.90
28959;DHT22;16066;0.000;0.000;2023-08-06T19:03:47;22.30;57.80
28959;DHT22;16066;0.000;0.000;2023-08-06T19:06:13;22.20;57.80
28959;DHT22;16066;0.000;0.000;2023-08-06T19:08:39;22.30;57.80
28959;DHT22;16066;0.000;0.000;2023-08-06T19:11:05;22.30;57.90
28959;DHT22;16066;0.000;0.000;2023-08-06T19:13:30;22.30;57.90
28959;DHT22;16066;0.000;0.000;2023-08-06T19:15:56;22.30;57.80
28959;DHT22;16066;0.000;0.000;2023-08-06T19:18:21;22.30;57.70
28959;DHT22;16066;0.000;0.000;2023-08-06T19:20:47;22.30;57.80
28959;DHT22;16066;0.000;0.000;2023-08-06T19:23:13;22.20;57.70
28959;DHT22;16066;0.000;0.000;2023-08-06T19:25:43;22.20;57.70
28959;DHT22;16066;0.000;0.000;2023-08-06T19:28:09;22.20;57.60
28959;DHT22;16066;0.000;0.000;2023-08-06T19:30:40;22.20;57.60
28959;DHT22;16066;0.000;0.000;2023-08-06T19:33:10;22.20;57.70
28959;DHT22;16066;0.000;0.000;2023-08-06T19:35:58;22.20;57.90
28959;DHT22;16066;0.000;0.000;2023-08-06T19:38:24;22.20;57.70
28959;DHT22;16066;0.000;0.000;2023-08-06T19:40:51;22.20;57.60
28959;DHT22;16066;0.000;0.000;2023-08-06T19:43:26;22.20;57.50
28959;DHT22;16066;0.000;0.000;2023-08-06T19:45:53;22.20;57.60
28959;DHT22;16066;0.000;0.000;2023-08-06T19:48:19;22.20;57.70
28959;DHT22;16066;0.000;0.000;2023-08-06T19:50:51;22.20;57.50
28959;DHT22;16066;0.000;0.000;2023-08-06T19:53:18;22.20;57.50
28959;DHT22;16066;0.000;0.000;2023-08-06T19:55:43;22.10;56.90
28959;DHT22;16066;0.000;0.000;2023-08-06T19:58:09;22.10;57.40
28959;DHT22;16066;0.000;0.000;2023-08-06T20:00:35;22.10;57.00
28959;DHT22;16066;0.000;0.000;2023-08-06T20:03:00;22.10;57.10
28959;DHT22;16066;0.000;0.000;2023-08-06T20:05:26;22.00;57.20
28959;DHT22;16066;0.000;0.000;2023-08-06T20:07:52;22.00;57.10
28959;DHT22;16066;0.000;0.000;2023-08-06T20:10:17;21.90;57.00
28959;DHT22;16066;0.000;0.000;2023-08-06T20:12:43;21.90;56.80
28959;DHT22;16066;0.000;0.000;2023-08-06T20:15:08;21.90;56.80
28959;DHT22;16066;0.000;0.000;2023-08-06T20:17:34;21.90;56.90
28959;DHT22;16066;0.000;0.000;2023-08-06T20:20:00;21.90;57.40
28959;DHT22;16066;0.000;0.000;2023-08-06T20:22:25;21.90;56.90
28959;DHT22;16066;0.000;0.000;2023-08-06T20:24:51;21.90;56.70
28959;DHT22;16066;0.000;0.000;2023-08-06T20:27:16;21.90;56.90
28959;DHT22;16066;0.000;0.000;2023-08-06T20:29:42;21.90;56.90
28959;DHT22;16066;0.000;0.000;2023-08-06T20:32:07;21.90;57.30
28959;DHT22;16066;0.000;0.000;2023-08-06T20:34:33;21.90;57.30
28959;DHT22;16066;0.000;0.000;2023-08-06T20:36:59;22.00;57.30
28959;DHT22;16066;0.000;0.000;2023-08-06T20:39:24;22.00;57.20
28959;DHT22;16066;0.000;0.000;2023-08-06T20:41:50;22.00;56.90
28959;DHT22;16066;0.000;0.000;2023-08-06T20:44:15;22.00;57.10
28959;DHT22;16066;0.000;0.000;2023-08-06T20:46:41;22.10;57.50
28959;DHT22;16066;0.000;0.000;2023-08-06T20:49:06;22.10;57.00
28959;DHT22;16066;0.000;0.000;2023-08-06T20:51:32;22.10;56.90
28959;DHT22;16066;0.000;0.000;2023-08-06T20:53:57;22.10;56.90
28959;DHT22;16066;0.000;0.000;2023-08-06T20:56:23;22.10;57.00
28959;DHT22;16066;0.000;0.000;2023-08-06T20:58:48;22.10;56.70
28959;DHT22;16066;0.000;0.000;2023-08-06T21:01:14;22.10;56.80
28959;DHT22;16066;0.000;0.000;2023-08-06T21:03:39;22.10;56.60
28959;DHT22;16066;0.000;0.000;2023-08-06T21:06:06;22.20;56.70
28959;DHT22;16066;0.000;0.000;2023-08-06T21:08:33;22.10;56.50
28959;DHT22;16066;0.000;0.000;2023-08-06T21:10:59;22.10;56.40
28959;DHT22;16066;0.000;0.000;2023-08-06T21:13:27;22.10;56.40